sensor_id;sensor_type;location;lat;lon;timestamp;P1;durP1;ratioP1;P2;durP2;ratioP2
8889;SDS011;4481;43.406;24.454;2022-11-21T00:00:06;5.27;;;2.20;;
8889;SDS011;4481;43.406;24.454;2022-11-21T00:02:33;2.00;;;1.80;;
8889;SDS011;4481;43.406;24.454;2022-11-21T00:04:59;2.87;;;2.17;;
8889;SDS011;4481;43.406;24.454;2022-11-21T00:07:26;2.40;;;2.20;;
8889;SDS011;4481;43.406;24.454;2022-11-21T00:09:52;4.40;;;2.10;;
8889;SDS011;4481;43.406;24.454;2022-11-21T00:12:18;2.43;;;2.23;;
8889;SDS011;4481;43.406;24.454;2022-11-21T00:14:44;3.70;;;2.67;;
8889;SDS011;4481;43.406;24.454;2022-11-21T00:17:10;3.40;;;3.10;;
8889;SDS011;4481;43.406;24.454;2022-11-21T00:19:37;3.00;;;2.77;;
8889;SDS011;4481;43.406;24.454;2022-11-21T00:22:04;4.40;;;3.70;;
8889;SDS011;4481;43.406;24.454;2022-11-21T00:24:30;5.00;;;4.50;;
8889;SDS011;4481;43.406;24.454;2022-11-21T00:26:56;5.20;;;4.00;;
8889;SDS011;4481;43.406;24.454;2022-11-21T00:29:22;4.23;;;3.23;;
8889;SDS011;4481;43.406;24.454;2022-11-21T00:31:48;9.40;;;3.20;;
8889;SDS011;4481;43.406;24.454;2022-11-21T00:34:14;2.73;;;2.47;;
8889;SDS011;4481;43.406;24.454;2022-11-21T00:36:41;3.20;;;2.70;;
8889;SDS011;4481;43.406;24.454;2022-11-21T00:39:07;3.80;;;2.80;;
8889;SDS011;4481;43.406;24.454;2022-11-21T00:41:34;3.30;;;2.47;;
8889;SDS011;4481;43.406;24.454;2022-11-21T00:44:00;6.90;;;2.60;;
8889;SDS011;4481;43.406;24.454;2022-11-21T00:46:26;4.60;;;3.13;;
8889;SDS011;4481;43.406;24.454;2022-11-21T00:48:52;3.27;;;2.60;;
8889;SDS011;4481;43.406;24.454;2022-11-21T00:51:18;3.00;;;2.70;;
8889;SDS011;4481;43.406;24.454;2022-11-21T00:53:45;2.30;;;2.10;;
8889;SDS011;4481;43.406;24.454;2022-11-21T00:56:11;2.50;;;1.90;;
8889;SDS011;4481;43.406;24.454;2022-11-21T00:58:38;2.13;;;1.80;;
8889;SDS011;4481;43.406;24.454;2022-11-21T01:01:04;2.53;;;1.90;;
8889;SDS011;4481;43.406;24.454;2022-11-21T01:03:32;3.93;;;1.77;;
8889;SDS011;4481;43.406;24.454;2022-11-21T01:06:00;2.57;;;2.30;;
8889;SDS011;4481;43.406;24.454;2022-11-21T01:08:27;4.37;;;2.10;;
8889;SDS011;4481;43.406;24.454;2022-11-21T01:10:54;5.27;;;2.50;;
8889;SDS011;4481;43.406;24.454;2022-11-21T01:13:20;3.00;;;1.70;;
8889;SDS011;4481;43.406;24.454;2022-11-21T01:15:46;5.53;;;1.87;;
8889;SDS011;4481;43.406;24.454;2022-11-21T01:18:13;2.10;;;1.83;;
8889;SDS011;4481;43.406;24.454;2022-11-21T01:20:40;1.77;;;1.63;;
8889;SDS011;4481;43.406;24.454;2022-11-21T01:23:06;1.70;;;1.60;;
8889;SDS011;4481;43.406;24.454;2022-11-21T01:25:32;4.93;;;1.90;;
8889;SDS011;4481;43.406;24.454;2022-11-21T01:27:59;4.57;;;2.10;;
8889;SDS011;4481;43.406;24.454;2022-11-21T01:30:25;3.60;;;1.90;;
8889;SDS011;4481;43.406;24.454;2022-11-21T01:32:51;3.90;;;2.10;;
8889;SDS011;4481;43.406;24.454;2022-11-21T01:35:18;3.90;;;2.40;;
8889;SDS011;4481;43.406;24.454;2022-11-21T01:37:45;3.07;;;1.90;;
8889;SDS011;4481;43.406;24.454;2022-11-21T01:40:12;2.57;;;2.10;;
8889;SDS011;4481;43.406;24.454;2022-11-21T01:48:20;1.90;;;1.40;;
8889;SDS011;4481;43.406;24.454;2022-11-21T01:50:49;2.43;;;1.70;;
8889;SDS011;4481;43.406;24.454;2022-11-21T01:53:15;2.07;;;1.60;;
8889;SDS011;4481;43.406;24.454;2022-11-21T01:55:41;2.60;;;1.77;;
8889;SDS011;4481;43.406;24.454;2022-11-21T01:58:08;4.17;;;1.83;;
8889;SDS011;4481;43.406;24.454;2022-11-21T02:00:36;1.60;;;1.50;;
8889;SDS011;4481;43.406;24.454;2022-11-21T02:03:06;2.03;;;1.70;;
8889;SDS011;4481;43.406;24.454;2022-11-21T02:05:36;3.80;;;1.57;;
8889;SDS011;4481;43.406;24.454;2022-11-21T02:08:05;3.83;;;2.20;;
8889;SDS011;4481;43.406;24.454;2022-11-21T02:10:35;3.43;;;2.53;;
8889;SDS011;4481;43.406;24.454;2022-11-21T02:13:04;2.93;;;2.63;;
8889;SDS011;4481;43.406;24.454;2022-11-21T02:15:30;4.43;;;2.57;;
8889;SDS011;4481;43.406;24.454;2022-11-21T02:17:56;5.40;;;2.50;;
8889;SDS011;4481;43.406;24.454;2022-11-21T02:20:24;4.57;;;2.33;;
8889;SDS011;4481;43.406;24.454;2022-11-21T02:22:52;5.57;;;2.73;;
8889;SDS011;4481;43.406;24.454;2022-11-21T02:25:29;3.27;;;2.73;;
8889;SDS011;4481;43.406;24.454;2022-11-21T02:27:57;2.87;;;2.30;;
8889;SDS011;4481;43.406;24.454;2022-11-21T02:30:26;2.87;;;2.53;;
8889;SDS011;4481;43.406;24.454;2022-11-21T02:32:54;2.43;;;2.23;;
8889;SDS011;4481;43.406;24.454;2022-11-21T02:35:20;2.87;;;2.47;;
8889;SDS011;4481;43.406;24.454;2022-11-21T02:37:47;2.70;;;2.50;;
8889;SDS011;4481;43.406;24.454;2022-11-21T02:40:23;4.37;;;2.33;;
8889;SDS011;4481;43.406;24.454;2022-11-21T02:42:55;5.40;;;2.60;;
8889;SDS011;4481;43.406;24.454;2022-11-21T02:45:26;2.67;;;2.10;;
8889;SDS011;4481;43.406;24.454;2022-11-21T02:47:56;3.30;;;2.60;;
8889;SDS011;4481;43.406;24.454;2022-11-21T02:50:24;5.30;;;2.40;;
8889;SDS011;4481;43.406;24.454;2022-11-21T02:52:52;4.13;;;2.17;;
8889;SDS011;4481;43.406;24.454;2022-11-21T02:55:19;4.50;;;2.60;;
8889;SDS011;4481;43.406;24.454;2022-11-21T02:57:45;2.30;;;2.00;;
8889;SDS011;4481;43.406;24.454;2022-11-21T03:00:13;1.83;;;1.63;;
8889;SDS011;4481;43.406;24.454;2022-11-21T03:02:40;3.93;;;2.20;;
8889;SDS011;4481;43.406;24.454;2022-11-21T03:05:07;2.10;;;1.80;;
8889;SDS011;4481;43.406;24.454;2022-11-21T03:07:35;2.10;;;1.90;;
8889;SDS011;4481;43.406;24.454;2022-11-21T03:10:02;6.50;;;2.10;;
8889;SDS011;4481;43.406;24.454;2022-11-21T03:12:28;3.60;;;2.43;;
8889;SDS011;4481;43.406;24.454;2022-11-21T03:14:55;2.70;;;1.80;;
8889;SDS011;4481;43.406;24.454;2022-11-21T03:17:21;3.10;;;2.27;;
8889;SDS011;4481;43.406;24.454;2022-11-21T03:19:48;3.53;;;1.93;;
8889;SDS011;4481;43.406;24.454;2022-11-21T03:22:14;2.37;;;1.80;;
8889;SDS011;4481;43.406;24.454;2022-11-21T03:24:40;4.57;;;3.20;;
8889;SDS011;4481;43.406;24.454;2022-11-21T03:27:06;7.13;;;4.23;;
8889;SDS011;4481;43.406;24.454;2022-11-21T03:29:32;5.27;;;4.57;;
8889;SDS011;4481;43.406;24.454;2022-11-21T03:31:59;4.80;;;3.67;;
8889;SDS011;4481;43.406;24.454;2022-11-21T03:34:26;3.07;;;2.77;;
8889;SDS011;4481;43.406;24.454;2022-11-21T03:36:52;3.67;;;2.80;;
8889;SDS011;4481;43.406;24.454;2022-11-21T03:39:18;3.53;;;2.70;;
8889;SDS011;4481;43.406;24.454;2022-11-21T03:41:44;4.17;;;3.20;;
8889;SDS011;4481;43.406;24.454;2022-11-21T03:44:10;3.60;;;3.30;;
8889;SDS011;4481;43.406;24.454;2022-11-21T03:46:38;6.03;;;3.50;;
8889;SDS011;4481;43.406;24.454;2022-11-21T03:49:06;2.67;;;2.47;;
8889;SDS011;4481;43.406;24.454;2022-11-21T03:51:33;3.10;;;2.50;;
8889;SDS011;4481;43.406;24.454;2022-11-21T03:54:00;5.60;;;2.97;;
8889;SDS011;4481;43.406;24.454;2022-11-21T03:56:27;5.70;;;2.80;;
8889;SDS011;4481;43.406;24.454;2022-11-21T03:58:53;4.50;;;3.53;;
8889;SDS011;4481;43.406;24.454;2022-11-21T04:01:20;3.27;;;2.97;;
8889;SDS011;4481;43.406;24.454;2022-11-21T04:03:46;4.53;;;3.70;;
8889;SDS011;4481;43.406;24.454;2022-11-21T04:06:13;7.23;;;4.20;;
8889;SDS011;4481;43.406;24.454;2022-11-21T04:08:42;5.40;;;4.90;;
8889;SDS011;4481;43.406;24.454;2022-11-21T04:11:08;6.73;;;5.67;;
8889;SDS011;4481;43.406;24.454;2022-11-21T04:13:35;6.77;;;6.17;;
8889;SDS011;4481;43.406;24.454;2022-11-21T04:16:01;8.13;;;6.93;;
8889;SDS011;4481;43.406;24.454;2022-11-21T04:18:28;6.90;;;6.23;;
8889;SDS011;4481;43.406;24.454;2022-11-21T04:20:54;8.10;;;7.17;;
8889;SDS011;4481;43.406;24.454;2022-11-21T04:23:21;8.00;;;7.03;;
8889;SDS011;4481;43.406;24.454;2022-11-21T04:25:49;7.93;;;7.13;;
8889;SDS011;4481;43.406;24.454;2022-11-21T04:28:15;9.07;;;8.17;;
8889;SDS011;4481;43.406;24.454;2022-11-21T04:30:41;8.90;;;8.00;;
8889;SDS011;4481;43.406;24.454;2022-11-21T04:33:07;8.90;;;8.00;;
8889;SDS011;4481;43.406;24.454;2022-11-21T04:35:34;8.70;;;7.90;;
8889;SDS011;4481;43.406;24.454;2022-11-21T04:38:00;11.03;;;8.83;;
8889;SDS011;4481;43.406;24.454;2022-11-21T04:40:26;12.83;;;7.93;;
8889;SDS011;4481;43.406;24.454;2022-11-21T04:42:53;10.23;;;8.23;;
8889;SDS011;4481;43.406;24.454;2022-11-21T04:45:19;8.93;;;8.03;;
8889;SDS011;4481;43.406;24.454;2022-11-21T04:47:45;9.90;;;8.57;;
8889;SDS011;4481;43.406;24.454;2022-11-21T04:52:40;11.50;;;8.13;;
8889;SDS011;4481;43.406;24.454;2022-11-21T04:55:07;11.50;;;9.37;;
8889;SDS011;4481;43.406;24.454;2022-11-21T04:57:34;11.23;;;10.03;;
8889;SDS011;4481;43.406;24.454;2022-11-21T05:00:01;9.50;;;8.57;;
8889;SDS011;4481;43.406;24.454;2022-11-21T05:02:28;13.47;;;9.33;;
8889;SDS011;4481;43.406;24.454;2022-11-21T05:04:54;10.40;;;8.70;;
8889;SDS011;4481;43.406;24.454;2022-11-21T05:07:20;9.57;;;8.63;;
8889;SDS011;4481;43.406;24.454;2022-11-21T05:09:46;9.43;;;7.63;;
8889;SDS011;4481;43.406;24.454;2022-11-21T05:12:12;8.23;;;7.37;;
8889;SDS011;4481;43.406;24.454;2022-11-21T05:14:56;7.80;;;7.03;;
8889;SDS011;4481;43.406;24.454;2022-11-21T05:17:23;8.63;;;7.70;;
8889;SDS011;4481;43.406;24.454;2022-11-21T05:19:49;8.40;;;7.30;;
8889;SDS011;4481;43.406;24.454;2022-11-21T05:22:15;7.40;;;6.70;;
8889;SDS011;4481;43.406;24.454;2022-11-21T05:24:42;7.50;;;6.80;;
8889;SDS011;4481;43.406;24.454;2022-11-21T05:27:08;7.40;;;5.50;;
8889;SDS011;4481;43.406;24.454;2022-11-21T05:29:34;5.97;;;4.80;;
8889;SDS011;4481;43.406;24.454;2022-11-21T05:32:00;5.60;;;4.10;;
8889;SDS011;4481;43.406;24.454;2022-11-21T05:34:27;3.80;;;3.40;;
8889;SDS011;4481;43.406;24.454;2022-11-21T05:36:53;3.70;;;3.40;;
8889;SDS011;4481;43.406;24.454;2022-11-21T05:39:21;3.97;;;3.57;;
8889;SDS011;4481;43.406;24.454;2022-11-21T05:41:48;3.40;;;3.10;;
8889;SDS011;4481;43.406;24.454;2022-11-21T05:44:14;5.50;;;3.80;;
8889;SDS011;4481;43.406;24.454;2022-11-21T05:46:40;3.13;;;2.93;;
8889;SDS011;4481;43.406;24.454;2022-11-21T05:49:06;3.40;;;3.10;;
8889;SDS011;4481;43.406;24.454;2022-11-21T05:51:33;3.20;;;2.90;;
8889;SDS011;4481;43.406;24.454;2022-11-21T05:53:59;6.50;;;2.83;;
8889;SDS011;4481;43.406;24.454;2022-11-21T05:56:25;2.60;;;2.40;;
8889;SDS011;4481;43.406;24.454;2022-11-21T05:58:53;4.27;;;3.63;;
8889;SDS011;4481;43.406;24.454;2022-11-21T06:01:20;3.90;;;3.60;;
8889;SDS011;4481;43.406;24.454;2022-11-21T06:04:00;3.93;;;3.63;;
8889;SDS011;4481;43.406;24.454;2022-11-21T06:06:27;5.63;;;3.70;;
8889;SDS011;4481;43.406;24.454;2022-11-21T06:08:54;2.03;;;1.87;;
8889;SDS011;4481;43.406;24.454;2022-11-21T06:11:20;1.50;;;1.40;;
8889;SDS011;4481;43.406;24.454;2022-11-21T06:13:46;2.73;;;2.17;;
8889;SDS011;4481;43.406;24.454;2022-11-21T06:16:13;2.07;;;1.87;;
8889;SDS011;4481;43.406;24.454;2022-11-21T06:18:41;2.60;;;2.40;;
8889;SDS011;4481;43.406;24.454;2022-11-21T06:21:11;2.40;;;2.20;;
8889;SDS011;4481;43.406;24.454;2022-11-21T06:23:39;2.87;;;2.67;;
8889;SDS011;4481;43.406;24.454;2022-11-21T06:26:07;2.83;;;2.53;;
8889;SDS011;4481;43.406;24.454;2022-11-21T06:28:37;4.87;;;3.20;;
8889;SDS011;4481;43.406;24.454;2022-11-21T06:31:04;4.50;;;4.10;;
8889;SDS011;4481;43.406;24.454;2022-11-21T06:33:31;3.80;;;3.50;;
8889;SDS011;4481;43.406;24.454;2022-11-21T06:36:00;3.87;;;3.23;;
8889;SDS011;4481;43.406;24.454;2022-11-21T06:38:26;2.43;;;2.23;;
8889;SDS011;4481;43.406;24.454;2022-11-21T06:40:53;3.73;;;1.80;;
8889;SDS011;4481;43.406;24.454;2022-11-21T06:43:20;1.90;;;1.70;;
8889;SDS011;4481;43.406;24.454;2022-11-21T06:45:46;2.27;;;2.07;;
8889;SDS011;4481;43.406;24.454;2022-11-21T06:48:12;1.97;;;1.77;;
8889;SDS011;4481;43.406;24.454;2022-11-21T06:50:38;2.20;;;2.00;;
8889;SDS011;4481;43.406;24.454;2022-11-21T06:53:04;2.00;;;1.37;;
8889;SDS011;4481;43.406;24.454;2022-11-21T06:55:31;1.70;;;1.60;;
8889;SDS011;4481;43.406;24.454;2022-11-21T06:57:57;1.70;;;1.60;;
8889;SDS011;4481;43.406;24.454;2022-11-21T07:00:24;2.80;;;1.67;;
8889;SDS011;4481;43.406;24.454;2022-11-21T07:02:52;1.60;;;1.50;;
8889;SDS011;4481;43.406;24.454;2022-11-21T07:05:18;1.30;;;1.20;;
8889;SDS011;4481;43.406;24.454;2022-11-21T07:07:44;2.00;;;1.60;;
8889;SDS011;4481;43.406;24.454;2022-11-21T07:10:10;1.50;;;1.40;;
8889;SDS011;4481;43.406;24.454;2022-11-21T07:12:36;1.30;;;1.20;;
8889;SDS011;4481;43.406;24.454;2022-11-21T07:15:21;1.50;;;1.40;;
8889;SDS011;4481;43.406;24.454;2022-11-21T07:17:48;1.53;;;1.43;;
8889;SDS011;4481;43.406;24.454;2022-11-21T07:20:14;2.90;;;1.40;;
8889;SDS011;4481;43.406;24.454;2022-11-21T07:22:40;1.60;;;1.50;;
8889;SDS011;4481;43.406;24.454;2022-11-21T07:25:07;5.27;;;2.00;;
8889;SDS011;4481;43.406;24.454;2022-11-21T07:27:33;2.13;;;1.50;;
8889;SDS011;4481;43.406;24.454;2022-11-21T07:30:00;1.30;;;1.20;;
8889;SDS011;4481;43.406;24.454;2022-11-21T07:32:26;1.50;;;1.40;;
8889;SDS011;4481;43.406;24.454;2022-11-21T07:34:53;1.10;;;1.00;;
8889;SDS011;4481;43.406;24.454;2022-11-21T07:37:19;1.00;;;1.00;;
8889;SDS011;4481;43.406;24.454;2022-11-21T07:39:45;1.40;;;1.30;;
8889;SDS011;4481;43.406;24.454;2022-11-21T07:42:12;1.27;;;1.17;;
8889;SDS011;4481;43.406;24.454;2022-11-21T07:44:38;1.40;;;1.30;;
8889;SDS011;4481;43.406;24.454;2022-11-21T07:47:04;1.40;;;1.27;;
8889;SDS011;4481;43.406;24.454;2022-11-21T07:49:30;2.60;;;1.10;;
8889;SDS011;4481;43.406;24.454;2022-11-21T07:51:57;1.30;;;1.20;;
8889;SDS011;4481;43.406;24.454;2022-11-21T07:54:23;1.30;;;1.20;;
8889;SDS011;4481;43.406;24.454;2022-11-21T07:56:49;1.87;;;1.40;;
8889;SDS011;4481;43.406;24.454;2022-11-21T07:59:17;1.63;;;1.43;;
8889;SDS011;4481;43.406;24.454;2022-11-21T08:01:43;2.00;;;1.60;;
8889;SDS011;4481;43.406;24.454;2022-11-21T08:04:10;1.70;;;1.60;;
8889;SDS011;4481;43.406;24.454;2022-11-21T08:06:36;1.20;;;1.10;;
8889;SDS011;4481;43.406;24.454;2022-11-21T08:09:03;2.63;;;1.30;;
8889;SDS011;4481;43.406;24.454;2022-11-21T08:11:29;1.90;;;1.23;;
8889;SDS011;4481;43.406;24.454;2022-11-21T08:13:57;1.67;;;1.23;;
8889;SDS011;4481;43.406;24.454;2022-11-21T08:16:23;1.83;;;1.73;;
8889;SDS011;4481;43.406;24.454;2022-11-21T08:18:52;2.70;;;2.03;;
8889;SDS011;4481;43.406;24.454;2022-11-21T08:21:18;2.53;;;1.80;;
8889;SDS011;4481;43.406;24.454;2022-11-21T08:23:44;1.40;;;1.30;;
8889;SDS011;4481;43.406;24.454;2022-11-21T08:26:11;2.43;;;1.70;;
8889;SDS011;4481;43.406;24.454;2022-11-21T08:28:37;2.63;;;1.90;;
8889;SDS011;4481;43.406;24.454;2022-11-21T08:31:03;4.53;;;3.33;;
8889;SDS011;4481;43.406;24.454;2022-11-21T08:33:31;2.17;;;1.67;;
8889;SDS011;4481;43.406;24.454;2022-11-21T08:35:57;2.60;;;2.20;;
8889;SDS011;4481;43.406;24.454;2022-11-21T08:38:24;1.90;;;1.40;;
8889;SDS011;4481;43.406;24.454;2022-11-21T08:40:50;2.03;;;1.80;;
8889;SDS011;4481;43.406;24.454;2022-11-21T08:43:37;2.40;;;2.03;;
8889;SDS011;4481;43.406;24.454;2022-11-21T08:46:03;2.87;;;2.30;;
8889;SDS011;4481;43.406;24.454;2022-11-21T08:48:29;2.20;;;1.90;;
8889;SDS011;4481;43.406;24.454;2022-11-21T08:50:55;2.03;;;1.53;;
8889;SDS011;4481;43.406;24.454;2022-11-21T08:53:22;2.30;;;1.80;;
8889;SDS011;4481;43.406;24.454;2022-11-21T08:55:48;1.80;;;1.70;;
8889;SDS011;4481;43.406;24.454;2022-11-21T08:58:14;9.70;;;1.70;;
8889;SDS011;4481;43.406;24.454;2022-11-21T09:00:41;2.53;;;2.00;;
8889;SDS011;4481;43.406;24.454;2022-11-21T09:03:07;2.60;;;2.30;;
8889;SDS011;4481;43.406;24.454;2022-11-21T09:05:33;2.70;;;1.97;;
8889;SDS011;4481;43.406;24.454;2022-11-21T09:07:59;1.93;;;1.73;;
8889;SDS011;4481;43.406;24.454;2022-11-21T09:10:26;3.07;;;2.30;;
8889;SDS011;4481;43.406;24.454;2022-11-21T09:12:53;4.00;;;2.47;;
8889;SDS011;4481;43.406;24.454;2022-11-21T09:15:23;2.57;;;2.17;;
8889;SDS011;4481;43.406;24.454;2022-11-21T09:18:09;3.93;;;2.80;;
8889;SDS011;4481;43.406;24.454;2022-11-21T09:20:38;4.13;;;2.30;;
8889;SDS011;4481;43.406;24.454;2022-11-21T09:23:06;1.97;;;1.83;;
8889;SDS011;4481;43.406;24.454;2022-11-21T09:25:33;5.17;;;1.77;;
8889;SDS011;4481;43.406;24.454;2022-11-21T09:27:59;2.57;;;2.37;;
8889;SDS011;4481;43.406;24.454;2022-11-21T09:30:26;3.70;;;2.97;;
8889;SDS011;4481;43.406;24.454;2022-11-21T09:32:52;3.30;;;2.80;;
8889;SDS011;4481;43.406;24.454;2022-11-21T09:35:19;3.63;;;2.63;;
8889;SDS011;4481;43.406;24.454;2022-11-21T09:37:46;2.57;;;2.23;;
8889;SDS011;4481;43.406;24.454;2022-11-21T09:45:31;1.83;;;1.70;;
8889;SDS011;4481;43.406;24.454;2022-11-21T09:48:00;2.00;;;1.80;;
8889;SDS011;4481;43.406;24.454;2022-11-21T09:50:30;1.80;;;1.70;;
8889;SDS011;4481;43.406;24.454;2022-11-21T09:53:00;0.97;;;0.97;;
8889;SDS011;4481;43.406;24.454;2022-11-21T09:55:31;1.63;;;1.53;;
8889;SDS011;4481;43.406;24.454;2022-11-21T09:58:08;1.90;;;1.70;;
8889;SDS011;4481;43.406;24.454;2022-11-21T10:00:45;1.83;;;1.43;;
8889;SDS011;4481;43.406;24.454;2022-11-21T10:03:14;5.53;;;1.63;;
8889;SDS011;4481;43.406;24.454;2022-11-21T10:05:43;2.70;;;1.50;;
8889;SDS011;4481;43.406;24.454;2022-11-21T10:08:15;2.10;;;1.40;;
8889;SDS011;4481;43.406;24.454;2022-11-21T10:10:54;1.63;;;1.40;;
8889;SDS011;4481;43.406;24.454;2022-11-21T10:13:31;1.77;;;1.40;;
8889;SDS011;4481;43.406;24.454;2022-11-21T10:16:11;3.23;;;1.10;;
8889;SDS011;4481;43.406;24.454;2022-11-21T10:19:06;1.13;;;1.07;;
8889;SDS011;4481;43.406;24.454;2022-11-21T10:22:00;1.73;;;1.00;;
8889;SDS011;4481;43.406;24.454;2022-11-21T10:24:47;0.80;;;0.80;;
8889;SDS011;4481;43.406;24.454;2022-11-21T10:27:22;1.60;;;0.90;;
8889;SDS011;4481;43.406;24.454;2022-11-21T10:29:57;0.70;;;0.70;;
8889;SDS011;4481;43.406;24.454;2022-11-21T10:32:26;0.80;;;0.80;;
8889;SDS011;4481;43.406;24.454;2022-11-21T10:34:57;0.93;;;0.90;;
8889;SDS011;4481;43.406;24.454;2022-11-21T10:37:31;1.13;;;0.90;;
8889;SDS011;4481;43.406;24.454;2022-11-21T10:40:07;0.80;;;0.80;;
8889;SDS011;4481;43.406;24.454;2022-11-21T10:42:43;1.10;;;0.90;;
8889;SDS011;4481;43.406;24.454;2022-11-21T10:45:16;1.60;;;1.50;;
8889;SDS011;4481;43.406;24.454;2022-11-21T10:47:43;0.93;;;0.90;;
8889;SDS011;4481;43.406;24.454;2022-11-21T10:50:14;0.93;;;0.90;;
8889;SDS011;4481;43.406;24.454;2022-11-21T10:52:55;1.20;;;0.90;;
8889;SDS011;4481;43.406;24.454;2022-11-21T10:55:55;1.23;;;0.90;;
8889;SDS011;4481;43.406;24.454;2022-11-21T10:58:37;1.00;;;0.90;;
8889;SDS011;4481;43.406;24.454;2022-11-21T11:01:17;1.10;;;1.00;;
8889;SDS011;4481;43.406;24.454;2022-11-21T11:03:44;0.80;;;0.80;;
8889;SDS011;4481;43.406;24.454;2022-11-21T11:06:10;1.00;;;0.90;;
8889;SDS011;4481;43.406;24.454;2022-11-21T11:08:48;2.60;;;0.90;;
8889;SDS011;4481;43.406;24.454;2022-11-21T11:11:16;0.93;;;0.83;;
8889;SDS011;4481;43.406;24.454;2022-11-21T11:13:52;0.80;;;0.80;;
8889;SDS011;4481;43.406;24.454;2022-11-21T11:16:21;0.90;;;0.90;;
8889;SDS011;4481;43.406;24.454;2022-11-21T11:18:50;0.90;;;0.80;;
8889;SDS011;4481;43.406;24.454;2022-11-21T11:21:22;1.43;;;1.23;;
8889;SDS011;4481;43.406;24.454;2022-11-21T11:23:50;3.93;;;1.00;;
8889;SDS011;4481;43.406;24.454;2022-11-21T11:26:27;0.80;;;0.80;;
8889;SDS011;4481;43.406;24.454;2022-11-21T11:29:01;1.03;;;0.93;;
8889;SDS011;4481;43.406;24.454;2022-11-21T11:31:38;1.60;;;1.10;;
8889;SDS011;4481;43.406;24.454;2022-11-21T11:34:07;1.00;;;1.00;;
8889;SDS011;4481;43.406;24.454;2022-11-21T11:36:41;1.30;;;1.00;;
8889;SDS011;4481;43.406;24.454;2022-11-21T11:39:21;1.73;;;1.07;;
8889;SDS011;4481;43.406;24.454;2022-11-21T11:42:07;4.43;;;1.53;;
8889;SDS011;4481;43.406;24.454;2022-11-21T11:45:14;1.20;;;1.10;;
8889;SDS011;4481;43.406;24.454;2022-11-21T11:48:03;3.00;;;1.40;;
8889;SDS011;4481;43.406;24.454;2022-11-21T11:50:33;1.33;;;1.10;;
8889;SDS011;4481;43.406;24.454;2022-11-21T11:53:05;1.10;;;1.00;;
8889;SDS011;4481;43.406;24.454;2022-11-21T11:55:38;1.57;;;1.47;;
8889;SDS011;4481;43.406;24.454;2022-11-21T11:58:10;2.93;;;1.50;;
8889;SDS011;4481;43.406;24.454;2022-11-21T12:00:44;2.30;;;1.83;;
8889;SDS011;4481;43.406;24.454;2022-11-21T12:03:14;1.43;;;1.13;;
8889;SDS011;4481;43.406;24.454;2022-11-21T12:05:50;2.53;;;1.20;;
8889;SDS011;4481;43.406;24.454;2022-11-21T12:08:23;2.03;;;1.27;;
8889;SDS011;4481;43.406;24.454;2022-11-21T12:10:56;1.20;;;1.10;;
8889;SDS011;4481;43.406;24.454;2022-11-21T12:13:46;1.87;;;1.30;;
8889;SDS011;4481;43.406;24.454;2022-11-21T12:16:13;1.20;;;1.10;;
8889;SDS011;4481;43.406;24.454;2022-11-21T12:18:44;1.43;;;1.20;;
8889;SDS011;4481;43.406;24.454;2022-11-21T12:21:16;1.40;;;1.30;;
8889;SDS011;4481;43.406;24.454;2022-11-21T12:23:44;1.30;;;1.20;;
8889;SDS011;4481;43.406;24.454;2022-11-21T12:26:19;1.17;;;1.07;;
8889;SDS011;4481;43.406;24.454;2022-11-21T12:29:02;1.10;;;0.90;;
8889;SDS011;4481;43.406;24.454;2022-11-21T12:31:41;1.00;;;1.00;;
8889;SDS011;4481;43.406;24.454;2022-11-21T12:34:27;1.80;;;1.37;;
8889;SDS011;4481;43.406;24.454;2022-11-21T12:37:07;1.50;;;1.40;;
8889;SDS011;4481;43.406;24.454;2022-11-21T12:42:39;2.13;;;1.93;;
8889;SDS011;4481;43.406;24.454;2022-11-21T12:45:24;2.43;;;2.03;;
8889;SDS011;4481;43.406;24.454;2022-11-21T12:48:02;1.87;;;1.40;;
8889;SDS011;4481;43.406;24.454;2022-11-21T12:51:01;1.00;;;1.00;;
8889;SDS011;4481;43.406;24.454;2022-11-21T12:54:12;0.90;;;0.90;;
8889;SDS011;4481;43.406;24.454;2022-11-21T12:56:56;1.10;;;1.00;;
8889;SDS011;4481;43.406;24.454;2022-11-21T12:59:30;2.27;;;1.33;;
8889;SDS011;4481;43.406;24.454;2022-11-21T13:02:06;1.50;;;1.40;;
8889;SDS011;4481;43.406;24.454;2022-11-21T13:04:43;1.53;;;1.40;;
8889;SDS011;4481;43.406;24.454;2022-11-21T13:07:14;1.20;;;1.10;;
8889;SDS011;4481;43.406;24.454;2022-11-21T13:09:42;2.63;;;1.33;;
8889;SDS011;4481;43.406;24.454;2022-11-21T13:12:15;1.30;;;1.20;;
8889;SDS011;4481;43.406;24.454;2022-11-21T13:14:50;1.10;;;1.00;;
8889;SDS011;4481;43.406;24.454;2022-11-21T13:17:22;1.30;;;1.20;;
8889;SDS011;4481;43.406;24.454;2022-11-21T13:20:01;1.27;;;1.17;;
8889;SDS011;4481;43.406;24.454;2022-11-21T13:22:48;1.10;;;1.00;;
8889;SDS011;4481;43.406;24.454;2022-11-21T13:25:40;1.53;;;1.30;;
8889;SDS011;4481;43.406;24.454;2022-11-21T13:28:26;1.67;;;1.57;;
8889;SDS011;4481;43.406;24.454;2022-11-21T13:31:00;1.57;;;1.40;;
8889;SDS011;4481;43.406;24.454;2022-11-21T13:41:59;1.60;;;1.50;;
8889;SDS011;4481;43.406;24.454;2022-11-21T13:44:53;1.40;;;1.30;;
8889;SDS011;4481;43.406;24.454;2022-11-21T13:47:39;1.60;;;1.50;;
8889;SDS011;4481;43.406;24.454;2022-11-21T13:50:16;1.87;;;1.50;;
8889;SDS011;4481;43.406;24.454;2022-11-21T13:52:54;2.30;;;1.40;;
8889;SDS011;4481;43.406;24.454;2022-11-21T13:55:40;1.60;;;1.10;;
8889;SDS011;4481;43.406;24.454;2022-11-21T13:58:19;1.60;;;1.50;;
8889;SDS011;4481;43.406;24.454;2022-11-21T14:09:48;2.73;;;1.90;;
8889;SDS011;4481;43.406;24.454;2022-11-21T14:12:19;2.13;;;2.00;;
8889;SDS011;4481;43.406;24.454;2022-11-21T14:14:50;1.87;;;1.77;;
8889;SDS011;4481;43.406;24.454;2022-11-21T14:17:26;1.70;;;1.60;;
8889;SDS011;4481;43.406;24.454;2022-11-21T14:19:59;2.63;;;1.90;;
8889;SDS011;4481;43.406;24.454;2022-11-21T14:22:34;2.20;;;2.00;;
8889;SDS011;4481;43.406;24.454;2022-11-21T14:25:06;2.33;;;2.13;;
8889;SDS011;4481;43.406;24.454;2022-11-21T14:27:34;3.27;;;2.37;;
8889;SDS011;4481;43.406;24.454;2022-11-21T14:30:04;2.77;;;2.30;;
8889;SDS011;4481;43.406;24.454;2022-11-21T14:32:30;2.07;;;1.83;;
8889;SDS011;4481;43.406;24.454;2022-11-21T14:35:08;2.00;;;1.90;;
8889;SDS011;4481;43.406;24.454;2022-11-21T14:37:38;2.23;;;2.03;;
8889;SDS011;4481;43.406;24.454;2022-11-21T14:40:09;2.37;;;2.17;;
8889;SDS011;4481;43.406;24.454;2022-11-21T14:42:37;2.20;;;2.00;;
8889;SDS011;4481;43.406;24.454;2022-11-21T14:45:07;2.20;;;1.97;;
8889;SDS011;4481;43.406;24.454;2022-11-21T14:47:44;3.57;;;3.27;;
8889;SDS011;4481;43.406;24.454;2022-11-21T14:50:20;4.53;;;2.93;;
8889;SDS011;4481;43.406;24.454;2022-11-21T14:52:48;4.83;;;3.30;;
8889;SDS011;4481;43.406;24.454;2022-11-21T14:55:22;3.77;;;2.97;;
8889;SDS011;4481;43.406;24.454;2022-11-21T14:57:51;4.07;;;3.10;;
8889;SDS011;4481;43.406;24.454;2022-11-21T15:00:18;4.53;;;2.80;;
8889;SDS011;4481;43.406;24.454;2022-11-21T15:02:46;3.27;;;2.97;;
8889;SDS011;4481;43.406;24.454;2022-11-21T15:05:17;4.10;;;2.80;;
8889;SDS011;4481;43.406;24.454;2022-11-21T15:07:46;9.50;;;2.97;;
8889;SDS011;4481;43.406;24.454;2022-11-21T15:10:12;3.63;;;2.40;;
8889;SDS011;4481;43.406;24.454;2022-11-21T15:12:41;3.93;;;3.60;;
8889;SDS011;4481;43.406;24.454;2022-11-21T15:15:20;4.23;;;3.03;;
8889;SDS011;4481;43.406;24.454;2022-11-21T15:17:53;4.50;;;4.10;;
8889;SDS011;4481;43.406;24.454;2022-11-21T15:20:21;4.30;;;3.90;;
8889;SDS011;4481;43.406;24.454;2022-11-21T15:22:49;4.77;;;4.23;;
8889;SDS011;4481;43.406;24.454;2022-11-21T15:25:19;5.10;;;4.17;;
8889;SDS011;4481;43.406;24.454;2022-11-21T15:27:47;5.87;;;3.73;;
8889;SDS011;4481;43.406;24.454;2022-11-21T15:30:22;3.80;;;3.50;;
8889;SDS011;4481;43.406;24.454;2022-11-21T15:33:00;3.97;;;3.23;;
8889;SDS011;4481;43.406;24.454;2022-11-21T15:35:27;3.33;;;3.03;;
8889;SDS011;4481;43.406;24.454;2022-11-21T15:38:11;3.67;;;3.20;;
8889;SDS011;4481;43.406;24.454;2022-11-21T15:40:40;6.13;;;5.30;;
8889;SDS011;4481;43.406;24.454;2022-11-21T15:43:33;3.33;;;3.00;;
8889;SDS011;4481;43.406;24.454;2022-11-21T15:46:01;3.10;;;2.80;;
8889;SDS011;4481;43.406;24.454;2022-11-21T15:48:28;3.30;;;3.00;;
8889;SDS011;4481;43.406;24.454;2022-11-21T15:50:54;3.40;;;3.10;;